Time;durP1;ratioP1;P1;durP2;ratioP2;P2;SDS_P1;SDS_P2;PMS_P1;PMS_P2;Temp;Humidity;BMP_temperature;BMP_pressure;BME280_temperature;BME280_humidity;BME280_pressure;Samples;Min_cycle;Max_cycle;Signal;HPM_P1;HPM_P2
2022/10/10 00:01:16;;;;;;;0.00;0.00;;;;;;;;;;5095061;28;20024;-75
2022/10/10 00:03:43;;;;;;;5.63;1.60;;;;;;;;;;5082569;28;20046;-75
2022/10/10 00:06:10;;;;;;;0.13;0.13;;;;;;;;;;5075424;28;20036;-77
2022/10/10 00:08:36;;;;;;;0.00;0.00;;;;;;;;;;5075536;28;20036;-76
2022/10/10 00:11:03;;;;;;;7.65;6.20;;;;;;;;;;5086858;28;20607;-76
2022/10/10 00:13:29;;;;;;;1.77;0.57;;;;;;;;;;5095297;28;20032;-76
2022/10/10 00:15:56;;;;;;;0.10;0.00;;;;;;;;;;5095410;28;20020;-75
2022/10/10 00:18:22;;;;;;;16.33;4.28;;;;;;;;;;5094914;28;20030;-76
2022/10/10 00:20:50;;;;;;;0.00;0.00;;;;;;;;;;5113879;28;20056;-75
2022/10/10 00:23:17;;;;;;;0.00;0.00;;;;;;;;;;5095247;28;20545;-75
2022/10/10 00:25:44;;;;;;;0.00;0.00;;;;;;;;;;5113708;28;20032;-76
2022/10/10 00:28:11;;;;;;;0.00;0.00;;;;;;;;;;5113634;28;20081;-75
2022/10/10 00:30:37;;;;;;;0.00;0.00;;;;;;;;;;5095301;28;20032;-76
2022/10/10 00:33:04;;;;;;;0.00;0.00;;;;;;;;;;5095303;28;20485;-76
2022/10/10 00:35:30;;;;;;;1.65;1.55;;;;;;;;;;5113742;28;20077;-76
2022/10/10 00:37:56;;;;;;;3.08;1.70;;;;;;;;;;5105300;28;20516;-76
2022/10/10 00:40:23;;;;;;;3.20;1.95;;;;;;;;;;5102225;28;20031;-76
2022/10/10 00:42:50;;;;;;;3.70;3.10;;;;;;;;;;5094581;28;20031;-76
2022/10/10 00:45:35;;;;;;;2.15;0.90;;;;;;;;;;5074980;28;20036;-76
2022/10/10 00:48:06;;;;;;;4.68;4.28;;;;;;;;;;5075204;28;20028;-76
2022/10/10 00:50:34;;;;;;;0.00;0.00;;;;;;;;;;5077260;28;20304;-76
2022/10/10 00:53:03;;;;;;;0.00;0.00;;;;;;;;;;5054647;28;20024;-76
2022/10/10 00:55:29;;;;;;;2.47;1.38;;;;;;;;;;5091775;28;20419;-76
2022/10/10 00:57:55;;;;;;;0.22;0.10;;;;;;;;;;5076216;28;20055;-76
2022/10/10 01:00:22;;;;;;;0.00;0.00;;;;;;;;;;5089431;28;20024;-76
2022/10/10 01:02:48;;;;;;;1.60;1.48;;;;;;;;;;5058854;28;20036;-76
2022/10/10 01:05:14;;;;;;;0.00;0.00;;;;;;;;;;5065723;28;20090;-76
2022/10/10 01:07:41;;;;;;;0.15;0.15;;;;;;;;;;5060833;28;20051;-76
2022/10/10 01:10:13;;;;;;;0.00;0.00;;;;;;;;;;5080592;28;20031;-76
2022/10/10 01:12:51;;;;;;;0.10;0.10;;;;;;;;;;5085544;28;20035;-77
2022/10/10 01:15:25;;;;;;;0.00;0.00;;;;;;;;;;5058525;28;20029;-77
2022/10/10 01:17:57;;;;;;;0.13;0.00;;;;;;;;;;5058861;28;20039;-77
2022/10/10 01:20:32;;;;;;;0.00;0.00;;;;;;;;;;5084352;28;20054;-76
2022/10/10 01:22:59;;;;;;;1.15;0.80;;;;;;;;;;5085316;28;20062;-77
2022/10/10 01:25:37;;;;;;;2.72;2.63;;;;;;;;;;5088141;28;20025;-76
2022/10/10 01:28:07;;;;;;;0.38;0.38;;;;;;;;;;5089002;28;20054;-77
2022/10/10 01:30:34;;;;;;;0.00;0.00;;;;;;;;;;5066423;28;20043;-77
2022/10/10 01:33:06;;;;;;;0.00;0.00;;;;;;;;;;5068940;28;20027;-77
2022/10/10 01:35:45;;;;;;;0.13;0.13;;;;;;;;;;5069284;28;20367;-77
2022/10/10 01:38:31;;;;;;;0.30;0.30;;;;;;;;;;5070119;28;20027;-77
2022/10/10 01:41:22;;;;;;;0.20;0.20;;;;;;;;;;5074751;28;20119;-76
2022/10/10 01:43:56;;;;;;;0.00;0.00;;;;;;;;;;5119999;27;20030;-76
2022/10/10 01:46:22;;;;;;;0.00;0.00;;;;;;;;;;5125590;27;20023;-77
2022/10/10 01:48:51;;;;;;;22.95;21.55;;;;;;;;;;5117975;27;20049;-77
2022/10/10 01:51:17;;;;;;;0.00;0.00;;;;;;;;;;5117308;27;20066;-77
2022/10/10 01:53:49;;;;;;;0.00;0.00;;;;;;;;;;5106023;27;20026;-77
2022/10/10 01:56:33;;;;;;;0.00;0.00;;;;;;;;;;5103480;27;20032;-77
2022/10/10 01:58:59;;;;;;;0.00;0.00;;;;;;;;;;5120039;27;20048;-76
2022/10/10 02:01:31;;;;;;;0.00;0.00;;;;;;;;;;5122024;27;20065;-77
2022/10/10 02:04:05;;;;;;;0.00;0.00;;;;;;;;;;5107912;27;20036;-76
2022/10/10 02:06:38;;;;;;;0.00;0.00;;;;;;;;;;5111789;27;20028;-76
2022/10/10 02:09:07;;;;;;;0.20;0.20;;;;;;;;;;5112135;27;20032;-76
2022/10/10 02:11:36;;;;;;;0.13;0.13;;;;;;;;;;5084570;28;20077;-77
2022/10/10 02:14:07;;;;;;;17.02;3.88;;;;;;;;;;5111415;27;20035;-77
2022/10/10 02:16:37;;;;;;;1.08;0.98;;;;;;;;;;5098061;28;20355;-77
2022/10/10 02:19:06;;;;;;;0.20;0.20;;;;;;;;;;5118215;28;20020;-77
2022/10/10 02:21:32;;;;;;;0.00;0.00;;;;;;;;;;5111197;28;20032;-76
2022/10/10 02:24:02;;;;;;;4.03;2.42;;;;;;;;;;5088618;28;20031;-75
2022/10/10 02:26:29;;;;;;;0.43;0.35;;;;;;;;;;5116821;27;20057;-76
2022/10/10 02:28:55;;;;;;;2.60;1.45;;;;;;;;;;5098917;28;20539;-74
2022/10/10 02:31:31;;;;;;;4.80;2.15;;;;;;;;;;5103646;28;20040;-74
2022/10/10 02:34:17;;;;;;;2.92;1.83;;;;;;;;;;5092435;28;20038;-75
2022/10/10 02:36:50;;;;;;;3.03;1.10;;;;;;;;;;5112668;28;20495;-76
2022/10/10 02:39:17;;;;;;;0.10;0.10;;;;;;;;;;5108714;27;20064;-76
2022/10/10 02:41:44;;;;;;;0.80;0.80;;;;;;;;;;5105202;28;20562;-73
2022/10/10 02:44:11;;;;;;;7.53;1.75;;;;;;;;;;5089811;28;20051;-73
2022/10/10 02:46:37;;;;;;;1.85;0.88;;;;;;;;;;5113700;28;20023;-74
2022/10/10 02:49:07;;;;;;;24.90;4.20;;;;;;;;;;5092376;28;20363;-72
2022/10/10 02:51:33;;;;;;;0.52;0.40;;;;;;;;;;5108626;28;20121;-72
2022/10/10 02:54:00;;;;;;;0.45;0.40;;;;;;;;;;5088538;27;20019;-73
2022/10/10 02:56:26;;;;;;;0.70;0.68;;;;;;;;;;5085733;28;20024;-75
2022/10/10 02:58:53;;;;;;;2.30;1.65;;;;;;;;;;5101448;28;20107;-74
2022/10/10 03:01:19;;;;;;;2.25;1.45;;;;;;;;;;5077397;28;20039;-75
2022/10/10 03:03:45;;;;;;;4.30;2.05;;;;;;;;;;5098079;27;20032;-74
2022/10/10 03:06:12;;;;;;;0.25;0.20;;;;;;;;;;5093354;27;20032;-74
2022/10/10 03:08:38;;;;;;;2.45;1.63;;;;;;;;;;5095528;28;20032;-75
2022/10/10 03:11:05;;;;;;;1.35;1.05;;;;;;;;;;5080690;28;20035;-74
2022/10/10 03:13:32;;;;;;;8.52;3.03;;;;;;;;;;5095922;28;20031;-75
2022/10/10 03:15:58;;;;;;;4.32;1.30;;;;;;;;;;5083705;27;20024;-75
2022/10/10 03:18:24;;;;;;;3.63;2.90;;;;;;;;;;5075852;28;20414;-76
2022/10/10 03:20:52;;;;;;;2.05;1.00;;;;;;;;;;5086941;28;20177;-77
2022/10/10 03:23:18;;;;;;;0.00;0.00;;;;;;;;;;5100742;28;20183;-75
2022/10/10 03:25:45;;;;;;;3.47;2.03;;;;;;;;;;5083774;28;20039;-76
2022/10/10 03:28:12;;;;;;;1.55;0.70;;;;;;;;;;5083473;28;20334;-75
2022/10/10 03:30:38;;;;;;;5.78;2.28;;;;;;;;;;5085251;27;20023;-73
2022/10/10 03:33:05;;;;;;;0.20;0.20;;;;;;;;;;5115007;27;20063;-75
2022/10/10 03:35:32;;;;;;;6.45;2.40;;;;;;;;;;5102043;28;20032;-75
2022/10/10 03:37:59;;;;;;;2.22;1.52;;;;;;;;;;5087584;28;20561;-77
2022/10/10 03:40:25;;;;;;;2.60;0.73;;;;;;;;;;5103914;28;20111;-74
2022/10/10 03:42:51;;;;;;;0.52;0.50;;;;;;;;;;5107399;28;20500;-77
2022/10/10 03:45:18;;;;;;;2.65;1.95;;;;;;;;;;5101901;27;20037;-75
2022/10/10 03:47:44;;;;;;;0.85;0.60;;;;;;;;;;5102441;28;20028;-76
2022/10/10 03:50:11;;;;;;;2.38;2.20;;;;;;;;;;5098372;28;20527;-76
2022/10/10 03:52:41;;;;;;;3.40;1.42;;;;;;;;;;5096062;28;20110;-76
2022/10/10 03:55:07;;;;;;;2.60;0.70;;;;;;;;;;5119123;28;20067;-78
2022/10/10 03:57:34;;;;;;;2.13;1.08;;;;;;;;;;5123672;28;20047;-77
2022/10/10 04:00:00;;;;;;;4.50;1.25;;;;;;;;;;5124780;28;20007;-75
2022/10/10 04:02:26;;;;;;;0.32;0.32;;;;;;;;;;5107453;28;20035;-76
2022/10/10 04:04:53;;;;;;;0.00;0.00;;;;;;;;;;5102307;28;20076;-76
2022/10/10 04:07:19;;;;;;;0.00;0.00;;;;;;;;;;5087659;28;20032;-76
2022/10/10 04:09:45;;;;;;;0.00;0.00;;;;;;;;;;5106152;28;20023;-78
2022/10/10 04:12:12;;;;;;;3.40;1.25;;;;;;;;;;5107532;28;20028;-75
2022/10/10 04:14:38;;;;;;;6.82;1.95;;;;;;;;;;5081876;28;20730;-75
2022/10/10 04:17:04;;;;;;;0.15;0.13;;;;;;;;;;5084378;28;20104;-75
2022/10/10 04:19:31;;;;;;;1.35;0.90;;;;;;;;;;5101493;28;20099;-74
2022/10/10 04:21:57;;;;;;;0.00;0.00;;;;;;;;;;5108429;27;20124;-75
2022/10/10 04:24:23;;;;;;;0.13;0.13;;;;;;;;;;5105292;28;20045;-74
2022/10/10 04:26:49;;;;;;;0.10;0.10;;;;;;;;;;5108363;28;20050;-74
2022/10/10 04:29:16;;;;;;;0.05;0.05;;;;;;;;;;5104065;28;20019;-74
2022/10/10 04:31:42;;;;;;;0.05;0.05;;;;;;;;;;5087486;27;20031;-74
2022/10/10 04:34:08;;;;;;;0.43;0.20;;;;;;;;;;5086804;27;20043;-74
2022/10/10 04:36:35;;;;;;;10.32;3.38;;;;;;;;;;5105232;28;20097;-75
2022/10/10 04:39:02;;;;;;;0.08;0.08;;;;;;;;;;5087957;28;20078;-75
2022/10/10 04:41:28;;;;;;;9.25;8.68;;;;;;;;;;5103525;28;20090;-75
2022/10/10 04:43:54;;;;;;;0.00;0.00;;;;;;;;;;5109907;27;20024;-75
2022/10/10 04:46:21;;;;;;;0.00;0.00;;;;;;;;;;5101590;28;20032;-73
2022/10/10 04:48:47;;;;;;;0.00;0.00;;;;;;;;;;5107320;27;20473;-73
2022/10/10 04:51:14;;;;;;;0.00;0.00;;;;;;;;;;5105985;27;20567;-75
2022/10/10 04:53:40;;;;;;;0.00;0.00;;;;;;;;;;5107006;28;20449;-75
2022/10/10 04:56:06;;;;;;;0.10;0.10;;;;;;;;;;5084723;28;20508;-76
2022/10/10 04:58:32;;;;;;;0.52;0.52;;;;;;;;;;5107539;28;20024;-76
2022/10/10 05:00:59;;;;;;;0.00;0.00;;;;;;;;;;5106035;28;20019;-76
2022/10/10 05:03:25;;;;;;;0.75;0.63;;;;;;;;;;5107043;28;20019;-75
2022/10/10 05:05:52;;;;;;;0.57;0.57;;;;;;;;;;5100731;28;20031;-76
2022/10/10 05:08:19;;;;;;;0.10;0.10;;;;;;;;;;5080977;28;20024;-75
2022/10/10 05:10:48;;;;;;;17.52;1.30;;;;;;;;;;5073821;28;20031;-76
2022/10/10 05:13:16;;;;;;;0.00;0.00;;;;;;;;;;5082435;28;20389;-76
2022/10/10 05:15:42;;;;;;;0.50;0.35;;;;;;;;;;5084185;28;20032;-75
2022/10/10 05:18:08;;;;;;;0.63;0.50;;;;;;;;;;5099142;28;20023;-76
2022/10/10 05:20:35;;;;;;;0.55;0.35;;;;;;;;;;5081741;28;20090;-77
2022/10/10 05:23:02;;;;;;;17.35;2.47;;;;;;;;;;5100532;28;20031;-75
2022/10/10 05:25:28;;;;;;;0.00;0.00;;;;;;;;;;5105598;28;20026;-76
2022/10/10 05:27:55;;;;;;;0.00;0.00;;;;;;;;;;5109692;28;20023;-76
2022/10/10 05:30:21;;;;;;;2.10;1.75;;;;;;;;;;5096710;28;20027;-78
2022/10/10 05:32:47;;;;;;;0.95;0.25;;;;;;;;;;5102237;28;20028;-80
2022/10/10 05:35:14;;;;;;;3.33;1.58;;;;;;;;;;5097041;28;20478;-80
2022/10/10 05:37:40;;;;;;;0.52;0.38;;;;;;;;;;5101393;28;20055;-76
2022/10/10 05:40:07;;;;;;;0.00;0.00;;;;;;;;;;5110534;28;20035;-79
2022/10/10 05:42:33;;;;;;;0.00;0.00;;;;;;;;;;5099275;28;20510;-79
2022/10/10 05:44:59;;;;;;;19.65;1.60;;;;;;;;;;5082622;28;20407;-79
2022/10/10 05:47:26;;;;;;;3.33;3.20;;;;;;;;;;5104156;28;20030;-78
2022/10/10 05:49:52;;;;;;;1.02;0.75;;;;;;;;;;5106346;28;20040;-79
2022/10/10 05:52:18;;;;;;;0.00;0.00;;;;;;;;;;5101927;28;20042;-79
2022/10/10 05:54:45;;;;;;;12.07;2.50;;;;;;;;;;5106915;28;20489;-79
2022/10/10 05:57:11;;;;;;;3.55;2.55;;;;;;;;;;5098466;28;20040;-77
2022/10/10 05:59:37;;;;;;;0.05;0.05;;;;;;;;;;5099327;28;20043;-78
2022/10/10 06:02:04;;;;;;;1.75;0.85;;;;;;;;;;5098772;28;20042;-76
2022/10/10 06:04:30;;;;;;;0.00;0.00;;;;;;;;;;5088944;27;20106;-77
2022/10/10 06:06:57;;;;;;;1.52;0.50;;;;;;;;;;5107735;27;20031;-77
2022/10/10 06:09:23;;;;;;;1.00;1.00;;;;;;;;;;5086830;27;20032;-75
2022/10/10 06:11:50;;;;;;;1.30;1.23;;;;;;;;;;5100917;28;20020;-74
2022/10/10 06:14:16;;;;;;;1.55;0.55;;;;;;;;;;5088261;28;20038;-76
2022/10/10 06:16:44;;;;;;;2.90;1.35;;;;;;;;;;5105939;28;20369;-75
2022/10/10 06:19:10;;;;;;;0.65;0.63;;;;;;;;;;5107052;28;20093;-76
2022/10/10 06:21:37;;;;;;;1.15;1.15;;;;;;;;;;5080473;28;20500;-77
2022/10/10 06:24:03;;;;;;;0.20;0.15;;;;;;;;;;5101576;28;20481;-77
2022/10/10 06:26:29;;;;;;;1.33;0.82;;;;;;;;;;5077997;28;20027;-77
2022/10/10 06:28:56;;;;;;;1.00;0.93;;;;;;;;;;5101721;28;20504;-74
2022/10/10 06:31:22;;;;;;;1.33;1.05;;;;;;;;;;5101136;28;20067;-75
2022/10/10 06:33:49;;;;;;;3.83;1.85;;;;;;;;;;5083293;28;20039;-76
2022/10/10 06:36:16;;;;;;;1.08;0.77;;;;;;;;;;5105126;28;20023;-75
2022/10/10 06:38:44;;;;;;;6.60;3.00;;;;;;;;;;5100117;27;20059;-75
2022/10/10 06:41:11;;;;;;;4.95;3.60;;;;;;;;;;5102210;27;20058;-74
2022/10/10 06:43:37;;;;;;;4.00;3.42;;;;;;;;;;5099832;27;20059;-76
2022/10/10 06:46:04;;;;;;;0.25;0.25;;;;;;;;;;5099701;28;20128;-79
2022/10/10 06:48:33;;;;;;;0.10;0.10;;;;;;;;;;5104408;27;20037;-75
2022/10/10 06:51:04;;;;;;;10.50;1.40;;;;;;;;;;5100430;27;20031;-75
2022/10/10 06:53:31;;;;;;;6.47;5.93;;;;;;;;;;5084996;28;20054;-76
2022/10/10 06:55:58;;;;;;;1.77;0.98;;;;;;;;;;5107753;28;20019;-76
2022/10/10 06:58:25;;;;;;;2.08;0.98;;;;;;;;;;5105584;28;20503;-77
2022/10/10 07:00:52;;;;;;;0.63;0.32;;;;;;;;;;5104662;27;20028;-74
2022/10/10 07:03:19;;;;;;;2.92;2.20;;;;;;;;;;5102361;28;20500;-77
2022/10/10 07:05:49;;;;;;;0.52;0.50;;;;;;;;;;5090488;27;20037;-77
2022/10/10 07:08:15;;;;;;;2.35;1.98;;;;;;;;;;5103240;28;20031;-76
2022/10/10 07:10:42;;;;;;;0.20;0.20;;;;;;;;;;5089444;28;20539;-76
2022/10/10 07:13:08;;;;;;;3.95;1.67;;;;;;;;;;5095672;28;20035;-75
2022/10/10 07:15:34;;;;;;;0.82;0.82;;;;;;;;;;5090206;28;20024;-74
2022/10/10 07:18:01;;;;;;;0.15;0.15;;;;;;;;;;5085942;28;20020;-75
2022/10/10 07:20:27;;;;;;;1.85;0.60;;;;;;;;;;5105108;27;20034;-75
2022/10/10 07:22:54;;;;;;;5.65;3.30;;;;;;;;;;5088126;28;20027;-75
2022/10/10 07:25:20;;;;;;;0.13;0.13;;;;;;;;;;5110229;28;20035;-75
2022/10/10 07:27:46;;;;;;;4.80;2.20;;;;;;;;;;5103545;28;20032;-74
2022/10/10 07:30:13;;;;;;;0.73;0.52;;;;;;;;;;5086644;28;20493;-75
2022/10/10 07:32:39;;;;;;;0.00;0.00;;;;;;;;;;5085185;28;20381;-74
2022/10/10 07:35:06;;;;;;;5.53;3.45;;;;;;;;;;5083446;28;20142;-75
2022/10/10 07:37:32;;;;;;;4.55;2.08;;;;;;;;;;5089351;27;20019;-75
2022/10/10 07:39:58;;;;;;;0.00;0.00;;;;;;;;;;5096284;28;20073;-76
2022/10/10 07:42:25;;;;;;;0.52;0.52;;;;;;;;;;5082213;28;20119;-76
2022/10/10 07:44:51;;;;;;;1.10;0.68;;;;;;;;;;5104951;28;20023;-75
2022/10/10 07:47:17;;;;;;;3.42;1.85;;;;;;;;;;5098667;28;20051;-75
2022/10/10 07:49:44;;;;;;;2.05;1.67;;;;;;;;;;5104655;27;20016;-75
2022/10/10 07:52:10;;;;;;;8.90;3.25;;;;;;;;;;5085058;28;20546;-75
2022/10/10 07:54:36;;;;;;;1.85;1.33;;;;;;;;;;5084632;28;20358;-75
2022/10/10 07:57:03;;;;;;;1.85;1.48;;;;;;;;;;5102373;28;20041;-76
2022/10/10 07:59:29;;;;;;;0.00;0.00;;;;;;;;;;5097311;28;20461;-73
2022/10/10 08:01:56;;;;;;;0.43;0.43;;;;;;;;;;5083564;28;20024;-73
2022/10/10 08:04:22;;;;;;;2.00;1.83;;;;;;;;;;5102404;27;20028;-74
2022/10/10 08:06:48;;;;;;;2.45;2.30;;;;;;;;;;5101340;28;20209;-73
2022/10/10 08:09:15;;;;;;;4.75;1.50;;;;;;;;;;5084792;28;20019;-73
2022/10/10 08:11:41;;;;;;;0.00;0.00;;;;;;;;;;5102790;27;20120;-74
2022/10/10 08:14:08;;;;;;;0.90;0.65;;;;;;;;;;5102779;27;20366;-73
2022/10/10 08:16:34;;;;;;;4.75;3.97;;;;;;;;;;5104583;27;20020;-74
2022/10/10 08:19:00;;;;;;;6.30;0.70;;;;;;;;;;5085379;28;20031;-74
2022/10/10 08:21:27;;;;;;;1.20;0.93;;;;;;;;;;5101079;28;20036;-73
2022/10/10 08:23:53;;;;;;;0.93;0.90;;;;;;;;;;5107681;28;20090;-75
2022/10/10 08:26:20;;;;;;;0.65;0.65;;;;;;;;;;5105880;28;20030;-75
2022/10/10 08:28:47;;;;;;;0.43;0.43;;;;;;;;;;5104210;28;20024;-75
2022/10/10 08:31:18;;;;;;;0.10;0.05;;;;;;;;;;5104108;27;20028;-75
2022/10/10 08:33:45;;;;;;;4.47;1.25;;;;;;;;;;5084732;28;20032;-75
2022/10/10 08:36:13;;;;;;;4.40;2.38;;;;;;;;;;5107102;28;20020;-75
2022/10/10 08:38:39;;;;;;;0.25;0.25;;;;;;;;;;5083711;28;20016;-74
2022/10/10 08:41:10;;;;;;;1.65;0.77;;;;;;;;;;5096944;28;20052;-74
2022/10/10 08:43:42;;;;;;;0.13;0.13;;;;;;;;;;5082042;28;20470;-74
2022/10/10 08:46:17;;;;;;;1.75;1.65;;;;;;;;;;5104431;27;20028;-75
2022/10/10 08:48:45;;;;;;;0.00;0.00;;;;;;;;;;5084576;28;20106;-75
2022/10/10 08:51:14;;;;;;;0.00;0.00;;;;;;;;;;5106549;28;20069;-74
2022/10/10 08:53:44;;;;;;;0.10;0.10;;;;;;;;;;5083212;28;20020;-76
2022/10/10 08:56:15;;;;;;;2.50;2.05;;;;;;;;;;5090093;28;20419;-76
2022/10/10 08:58:49;;;;;;;1.80;0.95;;;;;;;;;;5109300;28;20026;-76
2022/10/10 09:01:20;;;;;;;3.85;0.63;;;;;;;;;;5109685;27;20030;-77
2022/10/10 09:03:47;;;;;;;0.30;0.30;;;;;;;;;;5106303;28;20027;-76
2022/10/10 09:06:29;;;;;;;0.32;0.32;;;;;;;;;;5105320;28;20425;-77
2022/10/10 09:09:11;;;;;;;0.13;0.05;;;;;;;;;;5100591;28;20036;-76
2022/10/10 09:11:37;;;;;;;0.93;0.65;;;;;;;;;;5101556;28;20107;-75
2022/10/10 09:14:23;;;;;;;2.10;1.77;;;;;;;;;;5089670;28;20032;-77
2022/10/10 09:17:09;;;;;;;1.60;0.80;;;;;;;;;;5099845;28;20030;-73
2022/10/10 09:19:38;;;;;;;0.65;0.32;;;;;;;;;;5115953;28;20477;-75
2022/10/10 09:22:09;;;;;;;0.50;0.50;;;;;;;;;;5085952;28;20027;-75
2022/10/10 09:24:38;;;;;;;0.60;0.32;;;;;;;;;;5079411;28;20031;-73
2022/10/10 09:27:05;;;;;;;0.28;0.28;;;;;;;;;;5099206;28;20024;-76
2022/10/10 09:29:32;;;;;;;0.15;0.10;;;;;;;;;;5108439;28;20055;-76
2022/10/10 09:32:09;;;;;;;0.20;0.20;;;;;;;;;;5102259;28;20065;-76
2022/10/10 09:34:44;;;;;;;0.00;0.00;;;;;;;;;;5084827;28;20118;-76
2022/10/10 09:37:14;;;;;;;1.20;0.30;;;;;;;;;;5102147;28;20428;-75
2022/10/10 09:40:00;;;;;;;1.17;0.35;;;;;;;;;;5104459;28;20508;-75
2022/10/10 09:42:37;;;;;;;2.30;1.20;;;;;;;;;;5086641;28;20155;-75
2022/10/10 09:45:12;;;;;;;0.20;0.20;;;;;;;;;;5069402;28;20051;-75
2022/10/10 09:47:39;;;;;;;0.00;0.00;;;;;;;;;;5086110;28;20028;-76
2022/10/10 09:50:05;;;;;;;0.00;0.00;;;;;;;;;;5084359;28;20024;-77
2022/10/10 09:52:32;;;;;;;0.38;0.38;;;;;;;;;;5061713;28;20037;-78
2022/10/10 09:55:01;;;;;;;0.63;0.63;;;;;;;;;;5085055;28;20020;-75
2022/10/10 09:57:37;;;;;;;0.80;0.40;;;;;;;;;;5081927;28;20012;-75
2022/10/10 10:00:19;;;;;;;0.20;0.20;;;;;;;;;;5077558;28;20080;-75
2022/10/10 10:03:04;;;;;;;0.00;0.00;;;;;;;;;;5077395;28;20026;-74
2022/10/10 10:05:30;;;;;;;0.63;0.40;;;;;;;;;;5075929;28;20441;-74
2022/10/10 10:07:57;;;;;;;0.00;0.00;;;;;;;;;;5075178;28;20019;-74
2022/10/10 10:10:25;;;;;;;0.00;0.00;;;;;;;;;;5104254;28;20037;-73
2022/10/10 10:12:52;;;;;;;0.13;0.13;;;;;;;;;;5093335;28;20508;-74
2022/10/10 10:15:20;;;;;;;1.00;0.52;;;;;;;;;;5085303;28;20046;-75
2022/10/10 10:17:47;;;;;;;0.00;0.00;;;;;;;;;;5100347;28;20043;-76
2022/10/10 10:20:28;;;;;;;0.00;0.00;;;;;;;;;;5092656;28;20085;-75
2022/10/10 10:22:55;;;;;;;2.17;2.08;;;;;;;;;;5109742;28;20089;-75
2022/10/10 10:25:34;;;;;;;0.85;0.77;;;;;;;;;;5078807;28;20585;-76
2022/10/10 10:28:12;;;;;;;2.10;0.30;;;;;;;;;;5094901;28;20020;-75
2022/10/10 10:30:39;;;;;;;0.30;0.20;;;;;;;;;;5083366;28;20359;-74
2022/10/10 10:33:24;;;;;;;0.00;0.00;;;;;;;;;;5086613;28;20016;-75
2022/10/10 10:35:59;;;;;;;2.92;2.08;;;;;;;;;;5083648;28;20024;-74
2022/10/10 10:38:44;;;;;;;0.70;0.65;;;;;;;;;;5075394;28;20024;-74
2022/10/10 10:41:16;;;;;;;0.00;0.00;;;;;;;;;;5096873;28;20044;-74
2022/10/10 10:43:51;;;;;;;2.42;0.90;;;;;;;;;;5090446;28;20039;-77
2022/10/10 10:46:18;;;;;;;0.00;0.00;;;;;;;;;;5067996;28;20503;-74
2022/10/10 10:48:52;;;;;;;0.32;0.15;;;;;;;;;;5070672;28;20072;-75
2022/10/10 10:51:28;;;;;;;0.43;0.43;;;;;;;;;;5069757;28;20061;-73
2022/10/10 10:54:01;;;;;;;0.20;0.20;;;;;;;;;;5081791;28;20390;-74
2022/10/10 10:56:46;;;;;;;0.00;0.00;;;;;;;;;;5067336;28;20103;-74
2022/10/10 10:59:15;;;;;;;0.00;0.00;;;;;;;;;;5079476;28;20508;-73
2022/10/10 11:02:00;;;;;;;0.88;0.25;;;;;;;;;;5083143;28;20013;-75
2022/10/10 11:04:47;;;;;;;0.00;0.00;;;;;;;;;;5084881;28;20382;-74
2022/10/10 11:07:20;;;;;;;0.00;0.00;;;;;;;;;;5096524;28;20104;-75
2022/10/10 11:09:50;;;;;;;1.00;0.35;;;;;;;;;;5092828;28;20032;-73
2022/10/10 11:12:22;;;;;;;0.70;0.70;;;;;;;;;;5088969;28;20028;-74
2022/10/10 11:15:00;;;;;;;0.00;0.00;;;;;;;;;;5087267;28;20024;-75
2022/10/10 11:17:36;;;;;;;3.25;1.25;;;;;;;;;;5080680;28;20027;-74
2022/10/10 11:20:03;;;;;;;0.00;0.00;;;;;;;;;;5083400;28;20107;-74
2022/10/10 11:22:39;;;;;;;0.30;0.30;;;;;;;;;;5078825;28;20415;-73
2022/10/10 11:25:08;;;;;;;0.50;0.50;;;;;;;;;;5073398;28;20043;-75
2022/10/10 11:27:54;;;;;;;0.63;0.30;;;;;;;;;;5066649;28;20031;-73
2022/10/10 11:30:23;;;;;;;0.20;0.20;;;;;;;;;;5068606;28;20386;-74
2022/10/10 11:32:59;;;;;;;0.05;0.05;;;;;;;;;;5079436;28;20024;-73
2022/10/10 11:35:29;;;;;;;0.00;0.00;;;;;;;;;;5077337;28;20075;-75
2022/10/10 11:41:02;;;;;;;0.00;0.00;;;;;;;;;;5082126;28;20081;-77
2022/10/10 11:43:33;;;;;;;0.00;0.00;;;;;;;;;;5083769;28;20431;-77
2022/10/10 11:46:04;;;;;;;0.17;0.15;;;;;;;;;;5103043;28;20050;-76
2022/10/10 11:48:42;;;;;;;0.00;0.00;;;;;;;;;;5102954;27;20032;-77
2022/10/10 11:51:22;;;;;;;0.20;0.20;;;;;;;;;;5101060;27;20119;-77
2022/10/10 11:53:51;;;;;;;0.00;0.00;;;;;;;;;;5097012;27;20028;-78
2022/10/10 11:56:25;;;;;;;0.00;0.00;;;;;;;;;;5096095;27;20497;-76
2022/10/10 11:58:57;;;;;;;0.00;0.00;;;;;;;;;;5110042;27;20099;-76
2022/10/10 12:01:24;;;;;;;0.00;0.00;;;;;;;;;;5088430;28;20047;-77
2022/10/10 12:03:51;;;;;;;0.30;0.30;;;;;;;;;;5103180;27;20510;-77
2022/10/10 12:06:21;;;;;;;0.00;0.00;;;;;;;;;;5095476;28;20443;-74
2022/10/10 12:08:54;;;;;;;0.82;0.82;;;;;;;;;;5118828;28;20027;-76
2022/10/10 12:11:46;;;;;;;0.00;0.00;;;;;;;;;;5104673;28;20104;-75
2022/10/10 12:14:17;;;;;;;0.00;0.00;;;;;;;;;;5079036;28;20051;-76
2022/10/10 12:16:44;;;;;;;0.00;0.00;;;;;;;;;;5084329;28;20027;-75
2022/10/10 12:19:18;;;;;;;0.00;0.00;;;;;;;;;;5101857;27;20428;-76
2022/10/10 12:21:53;;;;;;;0.17;0.17;;;;;;;;;;5109791;27;20423;-75
2022/10/10 12:24:19;;;;;;;0.00;0.00;;;;;;;;;;5110554;27;20473;-76
2022/10/10 12:26:52;;;;;;;0.00;0.00;;;;;;;;;;5107495;27;20070;-76
2022/10/10 12:29:37;;;;;;;0.00;0.00;;;;;;;;;;5105783;28;20020;-76
2022/10/10 12:32:22;;;;;;;0.00;0.00;;;;;;;;;;5105352;28;20039;-76
2022/10/10 12:34:49;;;;;;;0.00;0.00;;;;;;;;;;5103995;28;20147;-76
2022/10/10 12:37:26;;;;;;;0.00;0.00;;;;;;;;;;5101408;28;20488;-76
2022/10/10 12:40:07;;;;;;;0.00;0.00;;;;;;;;;;5104028;28;20020;-76
2022/10/10 12:42:59;;;;;;;0.00;0.00;;;;;;;;;;5097860;28;20069;-75
2022/10/10 12:45:28;;;;;;;0.00;0.00;;;;;;;;;;5086765;28;20034;-75
2022/10/10 12:47:59;;;;;;;0.00;0.00;;;;;;;;;;5081698;28;20036;-76
2022/10/10 12:50:27;;;;;;;0.00;0.00;;;;;;;;;;5100017;28;20035;-75
2022/10/10 12:53:16;;;;;;;0.00;0.00;;;;;;;;;;5099152;27;20075;-76
2022/10/10 12:56:00;;;;;;;0.00;0.00;;;;;;;;;;5083740;28;20115;-75
2022/10/10 12:58:29;;;;;;;0.00;0.00;;;;;;;;;;5084902;28;20401;-75
2022/10/10 13:00:57;;;;;;;0.00;0.00;;;;;;;;;;5099699;28;20405;-75
2022/10/10 13:03:27;;;;;;;0.00;0.00;;;;;;;;;;5081710;28;20027;-75
2022/10/10 13:05:54;;;;;;;0.00;0.00;;;;;;;;;;5082391;28;20040;-76
2022/10/10 13:08:23;;;;;;;0.00;0.00;;;;;;;;;;5097815;27;20050;-75
2022/10/10 13:11:05;;;;;;;0.00;0.00;;;;;;;;;;5098524;28;20638;-76
2022/10/10 13:13:31;;;;;;;0.00;0.00;;;;;;;;;;5110217;28;20027;-75
2022/10/10 13:15:59;;;;;;;0.00;0.00;;;;;;;;;;5106139;28;20024;-76
2022/10/10 13:18:39;;;;;;;0.00;0.00;;;;;;;;;;5085077;28;20047;-75
2022/10/10 13:21:07;;;;;;;0.00;0.00;;;;;;;;;;5108380;28;20027;-75
2022/10/10 13:23:35;;;;;;;0.00;0.00;;;;;;;;;;5098804;28;20086;-75
2022/10/10 13:26:02;;;;;;;0.00;0.00;;;;;;;;;;5105279;28;20024;-74
2022/10/10 13:28:29;;;;;;;0.00;0.00;;;;;;;;;;5109187;28;20377;-74
2022/10/10 13:30:55;;;;;;;24.20;6.22;;;;;;;;;;5105563;28;20020;-76
2022/10/10 13:33:23;;;;;;;0.00;0.00;;;;;;;;;;5111457;28;20020;-73
2022/10/10 13:35:50;;;;;;;0.00;0.00;;;;;;;;;;5104489;28;20023;-75
2022/10/10 13:38:25;;;;;;;0.20;0.20;;;;;;;;;;5110061;28;20019;-76
2022/10/10 13:40:52;;;;;;;0.10;0.10;;;;;;;;;;5108908;28;20035;-73
2022/10/10 13:43:19;;;;;;;0.00;0.00;;;;;;;;;;5108017;28;20126;-73
2022/10/10 13:45:55;;;;;;;5.93;4.03;;;;;;;;;;5104708;28;20496;-75
2022/10/10 13:48:25;;;;;;;0.00;0.00;;;;;;;;;;5103195;28;20032;-75
2022/10/10 13:51:03;;;;;;;0.00;0.00;;;;;;;;;;5110738;28;20020;-76
2022/10/10 13:53:30;;;;;;;0.00;0.00;;;;;;;;;;5108932;28;20104;-75
2022/10/10 13:56:02;;;;;;;1.50;1.50;;;;;;;;;;5106918;28;20020;-74
2022/10/10 13:58:30;;;;;;;0.03;0.03;;;;;;;;;;5110712;28;20098;-76
2022/10/10 14:01:01;;;;;;;0.45;0.45;;;;;;;;;;5110514;28;20113;-76
2022/10/10 14:03:28;;;;;;;2.08;1.98;;;;;;;;;;5106954;28;20150;-76
2022/10/10 14:05:55;;;;;;;2.20;2.10;;;;;;;;;;5105569;28;20023;-76
2022/10/10 14:08:25;;;;;;;0.00;0.00;;;;;;;;;;5104478;28;20038;-74
2022/10/10 14:10:56;;;;;;;0.00;0.00;;;;;;;;;;5091745;28;20482;-75
2022/10/10 14:13:24;;;;;;;0.17;0.17;;;;;;;;;;5107418;28;20028;-75
2022/10/10 14:15:51;;;;;;;0.70;0.70;;;;;;;;;;5111526;28;20022;-74
2022/10/10 14:18:19;;;;;;;1.45;1.45;;;;;;;;;;5108802;28;20027;-75
2022/10/10 14:20:46;;;;;;;0.05;0.05;;;;;;;;;;5107029;28;20051;-74
2022/10/10 14:23:12;;;;;;;0.00;0.00;;;;;;;;;;5107749;28;20019;-74
2022/10/10 14:25:40;;;;;;;0.88;0.88;;;;;;;;;;5110809;28;20024;-73
2022/10/10 14:28:07;;;;;;;0.20;0.20;;;;;;;;;;5114784;28;20525;-74
2022/10/10 14:30:34;;;;;;;0.00;0.00;;;;;;;;;;5107761;28;20043;-73
2022/10/10 14:33:01;;;;;;;0.00;0.00;;;;;;;;;;5107125;27;20058;-74
2022/10/10 14:35:27;;;;;;;0.00;0.00;;;;;;;;;;5109067;28;20070;-73
2022/10/10 14:37:54;;;;;;;0.10;0.10;;;;;;;;;;5111847;28;20526;-74
2022/10/10 14:40:21;;;;;;;2.50;2.38;;;;;;;;;;5113829;27;20504;-74
2022/10/10 14:42:48;;;;;;;0.00;0.00;;;;;;;;;;5107703;27;20031;-73
2022/10/10 14:45:15;;;;;;;0.00;0.00;;;;;;;;;;5115172;27;20023;-73
2022/10/10 14:47:42;;;;;;;0.00;0.00;;;;;;;;;;5117361;27;20020;-74
2022/10/10 14:50:15;;;;;;;0.00;0.00;;;;;;;;;;5111896;27;20027;-74
2022/10/10 14:52:42;;;;;;;2.40;2.30;;;;;;;;;;5113286;27;20106;-74
2022/10/10 14:55:08;;;;;;;2.55;2.38;;;;;;;;;;5132798;27;20043;-74
2022/10/10 14:57:35;;;;;;;0.10;0.10;;;;;;;;;;5116495;27;20475;-74
2022/10/10 15:00:01;;;;;;;0.40;0.40;;;;;;;;;;5115014;27;20373;-74